This is the latest recevied weather packets stored in our database for station/object HG6IQI-10. If no packets are shown the sender has not sent any weather packets the latest 10 day(s).
| Time | Temp. | Humidity | Pressure | Rain* | Wind** | Luminosity | Snow |
|---|---|---|---|---|---|---|---|
| 1777756696 | 8.33° C | 70% | 1022.2 hPa | - | - | - | - |
| 1777755796 | 8.89° C | 68% | 1022.2 hPa | - | - | - | - |
| 1777754896 | 9.44° C | 67% | 1022.1 hPa | - | - | - | - |
| 1777753996 | 10° C | 65% | 1022 hPa | - | - | - | - |
| 1777753095 | 10° C | 62% | 1022 hPa | - | - | - | - |
| 1777752195 | 11.11° C | 58% | 1021.9 hPa | - | - | - | - |
| 1777751295 | 12.22° C | 55% | 1021.8 hPa | - | - | - | - |
| 1777750395 | 12.78° C | 52% | 1021.8 hPa | - | - | - | - |
| 1777749495 | 13.33° C | 50% | 1021.7 hPa | - | - | - | - |
| 1777748595 | 14.44° C | 47% | 1021.6 hPa | - | - | - | - |
| 1777747695 | 15° C | 44% | 1021.5 hPa | - | - | - | - |
| 1777746795 | 16.11° C | 42% | 1021.2 hPa | - | - | - | - |
| 1777745895 | 16.11° C | 43% | 1021 hPa | - | - | - | - |
| 1777744995 | 16.67° C | 43% | 1020.9 hPa | - | - | - | - |
| 1777744095 | 17.78° C | 40% | 1020.8 hPa | - | - | - | - |
| 1777743195 | 17.78° C | 43% | 1020.7 hPa | - | - | - | - |
| 1777742294 | 17.78° C | 44% | 1020.5 hPa | - | - | - | - |
| 1777741394 | 18.89° C | 42% | 1020.4 hPa | - | - | - | - |
| 1777740494 | 20° C | 35% | 1020.4 hPa | - | - | - | - |
| 1777739594 | 21.11° C | 33% | 1020.4 hPa | - | - | - | - |
| 1777737796 | 21.11° C | 33% | 1020.5 hPa | - | - | - | - |
| 1777736896 | 20.56° C | 33% | 1020.6 hPa | - | - | - | - |
| 1777735996 | 21.11° C | 32% | 1020.8 hPa | - | - | - | - |
| 1777735096 | 21.11° C | 32% | 1020.9 hPa | - | - | - | - |
| 1777734196 | 21.11° C | 32% | 1020.9 hPa | - | - | - | - |
* Rain since midnight (hover to see other rain measurements)
** Current wind speed in m/s (hover to see current wind gust speed)